sensor_id;sensor_type;location;lat;lon;timestamp;P1;durP1;ratioP1;P2;durP2;ratioP2
21239;SDS011;10778;48.962;9.018;2023-03-12T00:01:38;14.30;;;5.90;;
21239;SDS011;10778;48.962;9.018;2023-03-12T00:04:05;10.32;;;5.45;;
21239;SDS011;10778;48.962;9.018;2023-03-12T00:06:31;9.38;;;5.07;;
21239;SDS011;10778;48.962;9.018;2023-03-12T00:08:57;13.77;;;6.03;;
21239;SDS011;10778;48.962;9.018;2023-03-12T00:11:26;12.20;;;5.78;;
21239;SDS011;10778;48.962;9.018;2023-03-12T00:13:53;13.30;;;5.32;;
21239;SDS011;10778;48.962;9.018;2023-03-12T00:16:21;11.32;;;5.40;;
21239;SDS011;10778;48.962;9.018;2023-03-12T00:18:48;11.23;;;4.65;;
21239;SDS011;10778;48.962;9.018;2023-03-12T00:21:16;13.63;;;5.65;;
21239;SDS011;10778;48.962;9.018;2023-03-12T00:23:43;10.75;;;5.10;;
21239;SDS011;10778;48.962;9.018;2023-03-12T00:26:10;9.32;;;4.90;;
21239;SDS011;10778;48.962;9.018;2023-03-12T00:28:37;12.00;;;5.00;;
21239;SDS011;10778;48.962;9.018;2023-03-12T00:31:15;12.85;;;5.10;;
21239;SDS011;10778;48.962;9.018;2023-03-12T00:34:00;9.30;;;4.90;;
21239;SDS011;10778;48.962;9.018;2023-03-12T00:36:28;13.15;;;5.43;;
21239;SDS011;10778;48.962;9.018;2023-03-12T00:38:56;10.10;;;4.78;;
21239;SDS011;10778;48.962;9.018;2023-03-12T00:41:23;14.27;;;5.72;;
21239;SDS011;10778;48.962;9.018;2023-03-12T00:43:50;9.55;;;5.20;;
21239;SDS011;10778;48.962;9.018;2023-03-12T00:46:17;10.40;;;5.60;;
21239;SDS011;10778;48.962;9.018;2023-03-12T00:48:44;8.20;;;4.82;;
21239;SDS011;10778;48.962;9.018;2023-03-12T00:51:10;12.48;;;5.70;;
21239;SDS011;10778;48.962;9.018;2023-03-12T00:53:37;10.10;;;5.30;;
21239;SDS011;10778;48.962;9.018;2023-03-12T00:56:04;10.60;;;5.30;;
21239;SDS011;10778;48.962;9.018;2023-03-12T00:58:30;9.18;;;4.95;;
21239;SDS011;10778;48.962;9.018;2023-03-12T01:00:57;10.35;;;5.30;;
21239;SDS011;10778;48.962;9.018;2023-03-12T01:03:23;10.02;;;5.38;;
21239;SDS011;10778;48.962;9.018;2023-03-12T01:05:49;9.60;;;4.90;;
21239;SDS011;10778;48.962;9.018;2023-03-12T01:08:19;10.15;;;5.50;;
21239;SDS011;10778;48.962;9.018;2023-03-12T01:10:46;10.75;;;5.90;;
21239;SDS011;10778;48.962;9.018;2023-03-12T01:13:12;8.75;;;5.28;;
21239;SDS011;10778;48.962;9.018;2023-03-12T01:15:38;13.18;;;5.80;;
21239;SDS011;10778;48.962;9.018;2023-03-12T01:18:04;10.60;;;5.85;;
21239;SDS011;10778;48.962;9.018;2023-03-12T01:20:30;10.60;;;5.75;;
21239;SDS011;10778;48.962;9.018;2023-03-12T01:22:56;11.77;;;6.03;;
21239;SDS011;10778;48.962;9.018;2023-03-12T01:25:22;9.90;;;5.50;;
21239;SDS011;10778;48.962;9.018;2023-03-12T01:27:48;15.32;;;5.80;;
21239;SDS011;10778;48.962;9.018;2023-03-12T01:30:14;10.32;;;5.13;;
21239;SDS011;10778;48.962;9.018;2023-03-12T01:32:40;9.95;;;5.45;;
21239;SDS011;10778;48.962;9.018;2023-03-12T01:35:06;11.35;;;5.30;;
21239;SDS011;10778;48.962;9.018;2023-03-12T01:37:32;10.60;;;5.97;;
21239;SDS011;10778;48.962;9.018;2023-03-12T01:39:59;10.70;;;5.60;;
21239;SDS011;10778;48.962;9.018;2023-03-12T01:42:25;14.93;;;5.75;;
21239;SDS011;10778;48.962;9.018;2023-03-12T01:44:53;12.32;;;5.50;;
21239;SDS011;10778;48.962;9.018;2023-03-12T01:47:22;12.82;;;6.35;;
21239;SDS011;10778;48.962;9.018;2023-03-12T01:49:50;12.10;;;6.30;;
21239;SDS011;10778;48.962;9.018;2023-03-12T01:52:22;9.93;;;4.68;;
21239;SDS011;10778;48.962;9.018;2023-03-12T01:57:37;11.02;;;5.35;;
21239;SDS011;10778;48.962;9.018;2023-03-12T02:00:09;10.30;;;5.10;;
21239;SDS011;10778;48.962;9.018;2023-03-12T02:02:42;10.73;;;4.30;;
21239;SDS011;10778;48.962;9.018;2023-03-12T02:08:03;7.20;;;3.83;;
21239;SDS011;10778;48.962;9.018;2023-03-12T02:10:29;8.90;;;3.47;;
21239;SDS011;10778;48.962;9.018;2023-03-12T02:12:55;7.40;;;3.70;;
21239;SDS011;10778;48.962;9.018;2023-03-12T02:15:22;5.82;;;3.20;;
21239;SDS011;10778;48.962;9.018;2023-03-12T02:17:48;5.93;;;3.30;;
21239;SDS011;10778;48.962;9.018;2023-03-12T02:20:16;6.65;;;3.47;;
21239;SDS011;10778;48.962;9.018;2023-03-12T02:22:48;9.63;;;3.88;;
21239;SDS011;10778;48.962;9.018;2023-03-12T02:27:51;5.78;;;3.22;;
21239;SDS011;10778;48.962;9.018;2023-03-12T02:30:17;6.45;;;3.38;;
21239;SDS011;10778;48.962;9.018;2023-03-12T02:32:44;7.43;;;4.07;;
21239;SDS011;10778;48.962;9.018;2023-03-12T02:35:13;10.07;;;3.63;;
21239;SDS011;10778;48.962;9.018;2023-03-12T02:37:51;9.48;;;4.43;;
21239;SDS011;10778;48.962;9.018;2023-03-12T02:42:54;10.88;;;5.22;;
21239;SDS011;10778;48.962;9.018;2023-03-12T02:45:21;9.18;;;5.00;;
21239;SDS011;10778;48.962;9.018;2023-03-12T02:47:49;10.98;;;5.28;;
21239;SDS011;10778;48.962;9.018;2023-03-12T02:50:15;8.63;;;4.78;;
21239;SDS011;10778;48.962;9.018;2023-03-12T02:52:41;8.88;;;4.85;;
21239;SDS011;10778;48.962;9.018;2023-03-12T02:55:09;7.88;;;4.45;;
21239;SDS011;10778;48.962;9.018;2023-03-12T02:57:35;6.18;;;3.70;;
21239;SDS011;10778;48.962;9.018;2023-03-12T03:00:04;7.50;;;4.15;;
21239;SDS011;10778;48.962;9.018;2023-03-12T03:02:32;7.70;;;3.95;;
21239;SDS011;10778;48.962;9.018;2023-03-12T03:04:58;8.95;;;3.92;;
21239;SDS011;10778;48.962;9.018;2023-03-12T03:07:25;7.03;;;3.72;;
21239;SDS011;10778;48.962;9.018;2023-03-12T03:09:51;8.10;;;3.90;;
21239;SDS011;10778;48.962;9.018;2023-03-12T03:12:18;6.72;;;3.58;;
21239;SDS011;10778;48.962;9.018;2023-03-12T03:14:45;7.93;;;3.55;;
21239;SDS011;10778;48.962;9.018;2023-03-12T03:17:11;9.05;;;4.28;;
21239;SDS011;10778;48.962;9.018;2023-03-12T03:19:37;10.88;;;4.38;;
21239;SDS011;10778;48.962;9.018;2023-03-12T03:22:04;6.80;;;4.25;;
21239;SDS011;10778;48.962;9.018;2023-03-12T03:24:30;9.90;;;4.93;;
21239;SDS011;10778;48.962;9.018;2023-03-12T03:26:56;8.50;;;4.30;;
21239;SDS011;10778;48.962;9.018;2023-03-12T03:29:22;5.63;;;4.10;;
21239;SDS011;10778;48.962;9.018;2023-03-12T03:31:48;7.88;;;4.30;;
21239;SDS011;10778;48.962;9.018;2023-03-12T03:34:14;7.75;;;3.67;;
21239;SDS011;10778;48.962;9.018;2023-03-12T03:36:40;7.18;;;4.50;;
21239;SDS011;10778;48.962;9.018;2023-03-12T03:39:10;9.02;;;4.55;;
21239;SDS011;10778;48.962;9.018;2023-03-12T03:41:37;7.50;;;3.90;;
21239;SDS011;10778;48.962;9.018;2023-03-12T03:44:03;6.25;;;3.63;;
21239;SDS011;10778;48.962;9.018;2023-03-12T03:46:32;9.63;;;4.70;;
21239;SDS011;10778;48.962;9.018;2023-03-12T03:49:03;8.73;;;4.32;;
21239;SDS011;10778;48.962;9.018;2023-03-12T03:51:31;7.40;;;4.22;;
21239;SDS011;10778;48.962;9.018;2023-03-12T03:54:03;8.52;;;4.28;;
21239;SDS011;10778;48.962;9.018;2023-03-12T03:56:29;7.18;;;4.25;;
21239;SDS011;10778;48.962;9.018;2023-03-12T03:58:57;8.32;;;4.60;;
21239;SDS011;10778;48.962;9.018;2023-03-12T04:01:24;11.65;;;4.88;;
21239;SDS011;10778;48.962;9.018;2023-03-12T04:03:51;10.40;;;4.43;;
21239;SDS011;10778;48.962;9.018;2023-03-12T04:06:17;8.30;;;4.85;;
21239;SDS011;10778;48.962;9.018;2023-03-12T04:08:43;8.82;;;4.70;;
21239;SDS011;10778;48.962;9.018;2023-03-12T04:11:17;10.20;;;4.88;;
21239;SDS011;10778;48.962;9.018;2023-03-12T04:13:45;9.13;;;4.78;;
21239;SDS011;10778;48.962;9.018;2023-03-12T04:16:14;10.25;;;4.90;;
21239;SDS011;10778;48.962;9.018;2023-03-12T04:18:41;8.48;;;4.95;;
21239;SDS011;10778;48.962;9.018;2023-03-12T04:21:08;9.38;;;4.60;;
21239;SDS011;10778;48.962;9.018;2023-03-12T04:23:36;7.93;;;4.60;;
21239;SDS011;10778;48.962;9.018;2023-03-12T04:26:03;9.52;;;5.05;;
21239;SDS011;10778;48.962;9.018;2023-03-12T04:28:31;9.73;;;4.93;;
21239;SDS011;10778;48.962;9.018;2023-03-12T04:30:58;11.35;;;5.63;;
21239;SDS011;10778;48.962;9.018;2023-03-12T04:33:32;9.55;;;5.03;;
21239;SDS011;10778;48.962;9.018;2023-03-12T04:36:03;9.63;;;5.45;;
21239;SDS011;10778;48.962;9.018;2023-03-12T04:38:30;11.40;;;5.60;;
21239;SDS011;10778;48.962;9.018;2023-03-12T04:41:00;7.47;;;4.93;;
21239;SDS011;10778;48.962;9.018;2023-03-12T04:43:42;8.77;;;5.00;;
21239;SDS011;10778;48.962;9.018;2023-03-12T04:46:08;10.85;;;5.32;;
21239;SDS011;10778;48.962;9.018;2023-03-12T04:48:35;8.25;;;4.63;;
21239;SDS011;10778;48.962;9.018;2023-03-12T04:51:02;9.27;;;5.35;;
21239;SDS011;10778;48.962;9.018;2023-03-12T04:53:30;13.15;;;5.72;;
21239;SDS011;10778;48.962;9.018;2023-03-12T04:55:57;10.55;;;5.53;;
21239;SDS011;10778;48.962;9.018;2023-03-12T04:58:23;11.95;;;5.72;;
21239;SDS011;10778;48.962;9.018;2023-03-12T05:00:49;8.85;;;5.13;;
21239;SDS011;10778;48.962;9.018;2023-03-12T05:03:16;13.07;;;6.10;;
21239;SDS011;10778;48.962;9.018;2023-03-12T05:05:44;10.98;;;5.57;;
21239;SDS011;10778;48.962;9.018;2023-03-12T05:08:10;13.10;;;5.85;;
21239;SDS011;10778;48.962;9.018;2023-03-12T05:10:36;11.10;;;5.75;;
21239;SDS011;10778;48.962;9.018;2023-03-12T05:13:02;11.70;;;5.97;;
21239;SDS011;10778;48.962;9.018;2023-03-12T05:15:29;10.60;;;5.63;;
21239;SDS011;10778;48.962;9.018;2023-03-12T05:17:56;11.60;;;6.13;;
21239;SDS011;10778;48.962;9.018;2023-03-12T05:20:22;8.27;;;5.45;;
21239;SDS011;10778;48.962;9.018;2023-03-12T05:22:48;9.05;;;5.25;;
21239;SDS011;10778;48.962;9.018;2023-03-12T05:25:14;8.23;;;5.55;;
21239;SDS011;10778;48.962;9.018;2023-03-12T05:27:40;10.88;;;5.85;;
21239;SDS011;10778;48.962;9.018;2023-03-12T05:30:07;10.05;;;5.65;;
21239;SDS011;10778;48.962;9.018;2023-03-12T05:32:35;11.27;;;5.90;;
21239;SDS011;10778;48.962;9.018;2023-03-12T05:35:03;10.82;;;5.63;;
21239;SDS011;10778;48.962;9.018;2023-03-12T05:37:31;8.82;;;5.43;;
21239;SDS011;10778;48.962;9.018;2023-03-12T05:39:58;9.93;;;5.72;;
21239;SDS011;10778;48.962;9.018;2023-03-12T05:42:26;10.88;;;5.93;;
21239;SDS011;10778;48.962;9.018;2023-03-12T05:44:54;10.27;;;5.75;;
21239;SDS011;10778;48.962;9.018;2023-03-12T05:47:21;10.43;;;5.88;;
21239;SDS011;10778;48.962;9.018;2023-03-12T05:49:47;10.70;;;5.80;;
21239;SDS011;10778;48.962;9.018;2023-03-12T05:52:14;9.38;;;5.65;;
21239;SDS011;10778;48.962;9.018;2023-03-12T05:54:41;10.68;;;6.05;;
21239;SDS011;10778;48.962;9.018;2023-03-12T05:57:08;10.25;;;5.70;;
21239;SDS011;10778;48.962;9.018;2023-03-12T05:59:34;11.70;;;5.85;;
21239;SDS011;10778;48.962;9.018;2023-03-12T06:02:00;11.30;;;5.88;;
21239;SDS011;10778;48.962;9.018;2023-03-12T06:04:26;12.15;;;6.15;;
21239;SDS011;10778;48.962;9.018;2023-03-12T06:06:53;11.00;;;6.07;;
21239;SDS011;10778;48.962;9.018;2023-03-12T06:09:19;11.75;;;6.30;;
21239;SDS011;10778;48.962;9.018;2023-03-12T06:11:45;14.25;;;6.40;;
21239;SDS011;10778;48.962;9.018;2023-03-12T06:14:12;10.98;;;5.90;;
21239;SDS011;10778;48.962;9.018;2023-03-12T06:16:39;10.30;;;5.95;;
21239;SDS011;10778;48.962;9.018;2023-03-12T06:19:06;11.30;;;5.95;;
21239;SDS011;10778;48.962;9.018;2023-03-12T06:21:33;12.13;;;6.35;;
21239;SDS011;10778;48.962;9.018;2023-03-12T06:24:01;10.32;;;6.03;;
21239;SDS011;10778;48.962;9.018;2023-03-12T06:26:37;11.07;;;6.10;;
21239;SDS011;10778;48.962;9.018;2023-03-12T06:29:04;12.00;;;5.97;;
21239;SDS011;10778;48.962;9.018;2023-03-12T06:31:30;11.73;;;6.35;;
21239;SDS011;10778;48.962;9.018;2023-03-12T06:33:56;11.95;;;6.18;;
21239;SDS011;10778;48.962;9.018;2023-03-12T06:36:22;12.27;;;6.07;;
21239;SDS011;10778;48.962;9.018;2023-03-12T06:38:49;9.77;;;5.95;;
21239;SDS011;10778;48.962;9.018;2023-03-12T06:41:16;12.93;;;6.07;;
21239;SDS011;10778;48.962;9.018;2023-03-12T06:43:43;14.30;;;6.63;;
21239;SDS011;10778;48.962;9.018;2023-03-12T06:46:11;12.15;;;6.28;;
21239;SDS011;10778;48.962;9.018;2023-03-12T06:48:39;11.60;;;5.90;;
21239;SDS011;10778;48.962;9.018;2023-03-12T06:51:06;11.68;;;5.90;;
21239;SDS011;10778;48.962;9.018;2023-03-12T06:53:36;11.07;;;5.93;;
21239;SDS011;10778;48.962;9.018;2023-03-12T06:56:02;14.50;;;6.50;;
21239;SDS011;10778;48.962;9.018;2023-03-12T06:58:29;11.55;;;6.32;;
21239;SDS011;10778;48.962;9.018;2023-03-12T07:00:56;11.80;;;6.03;;
21239;SDS011;10778;48.962;9.018;2023-03-12T07:03:22;9.90;;;6.10;;
21239;SDS011;10778;48.962;9.018;2023-03-12T07:05:49;10.40;;;6.47;;
21239;SDS011;10778;48.962;9.018;2023-03-12T07:08:16;13.30;;;6.75;;
21239;SDS011;10778;48.962;9.018;2023-03-12T07:10:43;12.68;;;6.07;;
21239;SDS011;10778;48.962;9.018;2023-03-12T07:13:10;12.30;;;6.38;;
21239;SDS011;10778;48.962;9.018;2023-03-12T07:15:37;13.23;;;6.55;;
21239;SDS011;10778;48.962;9.018;2023-03-12T07:18:08;13.35;;;8.68;;
21239;SDS011;10778;48.962;9.018;2023-03-12T07:20:36;11.50;;;7.45;;
21239;SDS011;10778;48.962;9.018;2023-03-12T07:23:03;11.25;;;7.07;;
21239;SDS011;10778;48.962;9.018;2023-03-12T07:25:30;13.15;;;6.55;;
21239;SDS011;10778;48.962;9.018;2023-03-12T07:28:00;12.60;;;6.55;;
21239;SDS011;10778;48.962;9.018;2023-03-12T07:30:26;12.40;;;6.95;;
21239;SDS011;10778;48.962;9.018;2023-03-12T07:32:52;11.15;;;6.68;;
21239;SDS011;10778;48.962;9.018;2023-03-12T07:35:18;10.52;;;6.10;;
21239;SDS011;10778;48.962;9.018;2023-03-12T07:37:44;11.75;;;6.35;;
21239;SDS011;10778;48.962;9.018;2023-03-12T07:40:10;11.85;;;5.88;;
21239;SDS011;10778;48.962;9.018;2023-03-12T07:42:37;10.88;;;6.15;;
21239;SDS011;10778;48.962;9.018;2023-03-12T07:45:03;10.95;;;6.28;;
21239;SDS011;10778;48.962;9.018;2023-03-12T07:47:29;11.40;;;6.38;;
21239;SDS011;10778;48.962;9.018;2023-03-12T07:49:55;11.02;;;6.55;;
21239;SDS011;10778;48.962;9.018;2023-03-12T07:52:21;12.55;;;6.47;;
21239;SDS011;10778;48.962;9.018;2023-03-12T07:54:48;10.75;;;6.40;;
21239;SDS011;10778;48.962;9.018;2023-03-12T07:57:14;10.00;;;6.65;;
21239;SDS011;10778;48.962;9.018;2023-03-12T07:59:40;10.57;;;6.60;;
21239;SDS011;10778;48.962;9.018;2023-03-12T08:02:07;9.80;;;6.65;;
21239;SDS011;10778;48.962;9.018;2023-03-12T08:04:34;11.02;;;6.25;;
21239;SDS011;10778;48.962;9.018;2023-03-12T08:07:01;11.60;;;6.82;;
21239;SDS011;10778;48.962;9.018;2023-03-12T08:09:27;10.95;;;7.03;;
21239;SDS011;10778;48.962;9.018;2023-03-12T08:11:54;13.13;;;7.22;;
21239;SDS011;10778;48.962;9.018;2023-03-12T08:14:20;13.77;;;7.28;;
21239;SDS011;10778;48.962;9.018;2023-03-12T08:16:46;11.23;;;6.75;;
21239;SDS011;10778;48.962;9.018;2023-03-12T08:19:13;13.60;;;7.18;;
21239;SDS011;10778;48.962;9.018;2023-03-12T08:21:39;11.18;;;6.88;;
21239;SDS011;10778;48.962;9.018;2023-03-12T08:24:05;11.80;;;7.00;;
21239;SDS011;10778;48.962;9.018;2023-03-12T08:26:31;24.42;;;13.65;;
21239;SDS011;10778;48.962;9.018;2023-03-12T08:28:57;22.60;;;11.88;;
21239;SDS011;10778;48.962;9.018;2023-03-12T08:31:25;13.23;;;7.88;;
21239;SDS011;10778;48.962;9.018;2023-03-12T08:33:52;14.80;;;8.25;;
21239;SDS011;10778;48.962;9.018;2023-03-12T08:36:18;14.43;;;8.25;;
21239;SDS011;10778;48.962;9.018;2023-03-12T08:38:44;12.10;;;7.90;;
21239;SDS011;10778;48.962;9.018;2023-03-12T08:41:10;13.23;;;7.88;;
21239;SDS011;10778;48.962;9.018;2023-03-12T08:43:36;13.40;;;7.57;;
21239;SDS011;10778;48.962;9.018;2023-03-12T08:46:03;12.27;;;7.57;;
21239;SDS011;10778;48.962;9.018;2023-03-12T08:48:29;12.32;;;7.53;;
21239;SDS011;10778;48.962;9.018;2023-03-12T08:50:57;12.35;;;8.00;;
21239;SDS011;10778;48.962;9.018;2023-03-12T08:53:25;12.55;;;8.50;;
21239;SDS011;10778;48.962;9.018;2023-03-12T08:55:52;15.80;;;8.30;;
21239;SDS011;10778;48.962;9.018;2023-03-12T08:58:19;10.18;;;7.57;;
21239;SDS011;10778;48.962;9.018;2023-03-12T09:00:45;12.32;;;7.78;;
21239;SDS011;10778;48.962;9.018;2023-03-12T09:03:11;14.50;;;7.47;;
21239;SDS011;10778;48.962;9.018;2023-03-12T09:05:40;17.67;;;10.60;;
21239;SDS011;10778;48.962;9.018;2023-03-12T09:08:06;23.38;;;14.05;;
21239;SDS011;10778;48.962;9.018;2023-03-12T09:10:33;38.72;;;20.23;;
21239;SDS011;10778;48.962;9.018;2023-03-12T09:12:59;15.95;;;10.30;;
21239;SDS011;10778;48.962;9.018;2023-03-12T09:15:26;16.23;;;8.93;;
21239;SDS011;10778;48.962;9.018;2023-03-12T09:17:52;19.45;;;9.57;;
21239;SDS011;10778;48.962;9.018;2023-03-12T09:20:20;13.57;;;8.27;;
21239;SDS011;10778;48.962;9.018;2023-03-12T09:22:48;11.18;;;7.40;;
21239;SDS011;10778;48.962;9.018;2023-03-12T09:25:14;11.43;;;7.60;;
21239;SDS011;10778;48.962;9.018;2023-03-12T09:27:42;11.88;;;7.25;;
21239;SDS011;10778;48.962;9.018;2023-03-12T09:30:12;11.23;;;7.13;;
21239;SDS011;10778;48.962;9.018;2023-03-12T09:32:42;11.15;;;6.63;;
21239;SDS011;10778;48.962;9.018;2023-03-12T09:35:12;9.25;;;6.60;;
21239;SDS011;10778;48.962;9.018;2023-03-12T09:37:40;9.57;;;6.53;;
21239;SDS011;10778;48.962;9.018;2023-03-12T09:40:06;11.18;;;6.72;;
21239;SDS011;10778;48.962;9.018;2023-03-12T09:45:06;8.68;;;6.55;;
21239;SDS011;10778;48.962;9.018;2023-03-12T09:47:42;9.75;;;6.15;;
21239;SDS011;10778;48.962;9.018;2023-03-12T09:55:27;10.82;;;7.57;;
21239;SDS011;10778;48.962;9.018;2023-03-12T09:57:59;10.07;;;7.25;;
21239;SDS011;10778;48.962;9.018;2023-03-12T10:00:31;12.02;;;7.43;;
21239;SDS011;10778;48.962;9.018;2023-03-12T10:03:12;10.32;;;7.25;;
21239;SDS011;10778;48.962;9.018;2023-03-12T10:13:42;11.13;;;8.23;;
21239;SDS011;10778;48.962;9.018;2023-03-12T10:19:00;11.23;;;8.80;;
21239;SDS011;10778;48.962;9.018;2023-03-12T10:27:20;11.57;;;7.65;;
21239;SDS011;10778;48.962;9.018;2023-03-12T10:29:49;13.25;;;7.97;;
21239;SDS011;10778;48.962;9.018;2023-03-12T10:32:19;14.20;;;9.05;;
21239;SDS011;10778;48.962;9.018;2023-03-12T10:38:00;14.18;;;8.88;;
21239;SDS011;10778;48.962;9.018;2023-03-12T10:40:30;15.02;;;8.43;;
21239;SDS011;10778;48.962;9.018;2023-03-12T10:43:02;12.27;;;8.48;;
21239;SDS011;10778;48.962;9.018;2023-03-12T10:45:39;22.25;;;13.05;;
21239;SDS011;10778;48.962;9.018;2023-03-12T10:48:26;12.82;;;8.88;;
21239;SDS011;10778;48.962;9.018;2023-03-12T10:51:13;12.93;;;8.65;;
21239;SDS011;10778;48.962;9.018;2023-03-12T10:53:39;10.68;;;7.93;;
21239;SDS011;10778;48.962;9.018;2023-03-12T10:56:10;12.93;;;8.80;;
21239;SDS011;10778;48.962;9.018;2023-03-12T10:58:45;11.10;;;8.23;;
21239;SDS011;10778;48.962;9.018;2023-03-12T11:03:40;12.27;;;9.02;;
21239;SDS011;10778;48.962;9.018;2023-03-12T11:06:09;14.88;;;9.82;;
21239;SDS011;10778;48.962;9.018;2023-03-12T11:11:49;18.40;;;10.90;;
21239;SDS011;10778;48.962;9.018;2023-03-12T11:14:17;14.30;;;9.93;;
21239;SDS011;10778;48.962;9.018;2023-03-12T11:16:49;14.27;;;9.85;;
21239;SDS011;10778;48.962;9.018;2023-03-12T11:19:28;20.33;;;11.15;;
21239;SDS011;10778;48.962;9.018;2023-03-12T11:22:00;20.15;;;11.18;;
21239;SDS011;10778;48.962;9.018;2023-03-12T11:24:32;19.02;;;11.23;;
21239;SDS011;10778;48.962;9.018;2023-03-12T11:27:21;14.30;;;9.30;;
21239;SDS011;10778;48.962;9.018;2023-03-12T11:29:59;16.42;;;8.38;;
21239;SDS011;10778;48.962;9.018;2023-03-12T11:32:37;15.27;;;9.00;;
21239;SDS011;10778;48.962;9.018;2023-03-12T11:35:09;13.70;;;9.23;;
21239;SDS011;10778;48.962;9.018;2023-03-12T11:45:30;11.68;;;8.60;;
21239;SDS011;10778;48.962;9.018;2023-03-12T11:48:09;13.65;;;8.63;;
21239;SDS011;10778;48.962;9.018;2023-03-12T12:04:37;18.38;;;12.80;;
21239;SDS011;10778;48.962;9.018;2023-03-12T12:07:40;14.05;;;9.18;;
21239;SDS011;10778;48.962;9.018;2023-03-12T12:10:16;13.75;;;8.25;;
21239;SDS011;10778;48.962;9.018;2023-03-12T12:13:25;11.13;;;6.82;;
21239;SDS011;10778;48.962;9.018;2023-03-12T12:23:45;11.18;;;5.53;;
21239;SDS011;10778;48.962;9.018;2023-03-12T12:29:20;10.52;;;4.35;;
21239;SDS011;10778;48.962;9.018;2023-03-12T12:32:12;11.70;;;4.10;;
21239;SDS011;10778;48.962;9.018;2023-03-12T12:35:15;11.13;;;3.38;;
21239;SDS011;10778;48.962;9.018;2023-03-12T12:43:13;8.98;;;2.75;;
21239;SDS011;10778;48.962;9.018;2023-03-12T12:45:53;8.77;;;2.78;;
21239;SDS011;10778;48.962;9.018;2023-03-12T12:48:24;6.25;;;2.30;;
21239;SDS011;10778;48.962;9.018;2023-03-12T12:50:56;8.65;;;3.20;;
21239;SDS011;10778;48.962;9.018;2023-03-12T12:53:28;9.52;;;3.45;;
21239;SDS011;10778;48.962;9.018;2023-03-12T13:01:18;5.50;;;2.17;;
21239;SDS011;10778;48.962;9.018;2023-03-12T13:03:45;6.28;;;2.03;;
21239;SDS011;10778;48.962;9.018;2023-03-12T13:06:12;4.43;;;1.75;;
21239;SDS011;10778;48.962;9.018;2023-03-12T13:11:06;4.78;;;1.80;;
21239;SDS011;10778;48.962;9.018;2023-03-12T13:13:50;7.38;;;2.65;;
21239;SDS011;10778;48.962;9.018;2023-03-12T13:16:40;7.10;;;2.38;;
21239;SDS011;10778;48.962;9.018;2023-03-12T13:22:02;6.90;;;2.60;;
21239;SDS011;10778;48.962;9.018;2023-03-12T13:27:37;6.00;;;1.95;;
21239;SDS011;10778;48.962;9.018;2023-03-12T13:35:29;5.95;;;2.60;;
21239;SDS011;10778;48.962;9.018;2023-03-12T13:37:58;8.43;;;2.80;;
21239;SDS011;10778;48.962;9.018;2023-03-12T13:46:00;10.85;;;2.33;;
21239;SDS011;10778;48.962;9.018;2023-03-12T13:48:33;9.60;;;3.22;;
21239;SDS011;10778;48.962;9.018;2023-03-12T13:51:03;10.75;;;3.13;;
21239;SDS011;10778;48.962;9.018;2023-03-12T13:53:37;10.00;;;2.97;;
21239;SDS011;10778;48.962;9.018;2023-03-12T13:56:06;10.02;;;3.75;;
21239;SDS011;10778;48.962;9.018;2023-03-12T13:59:18;12.80;;;5.25;;
21239;SDS011;10778;48.962;9.018;2023-03-12T14:01:28;10.25;;;3.40;;
21239;SDS011;10778;48.962;9.018;2023-03-12T14:04:00;10.80;;;3.40;;
21239;SDS011;10778;48.962;9.018;2023-03-12T14:06:33;12.75;;;3.97;;
21239;SDS011;10778;48.962;9.018;2023-03-12T14:09:19;11.98;;;4.47;;
21239;SDS011;10778;48.962;9.018;2023-03-12T14:14:40;14.30;;;3.88;;
21239;SDS011;10778;48.962;9.018;2023-03-12T14:17:15;17.98;;;6.90;;
21239;SDS011;10778;48.962;9.018;2023-03-12T14:19:46;14.00;;;3.42;;
21239;SDS011;10778;48.962;9.018;2023-03-12T14:22:15;12.00;;;2.88;;
21239;SDS011;10778;48.962;9.018;2023-03-12T14:24:48;12.85;;;3.20;;
21239;SDS011;10778;48.962;9.018;2023-03-12T14:27:20;11.45;;;2.90;;
21239;SDS011;10778;48.962;9.018;2023-03-12T14:29:57;12.57;;;2.83;;
21239;SDS011;10778;48.962;9.018;2023-03-12T14:32:30;9.60;;;2.88;;
21239;SDS011;10778;48.962;9.018;2023-03-12T14:43:49;12.55;;;2.90;;
21239;SDS011;10778;48.962;9.018;2023-03-12T14:46:18;12.10;;;3.47;;
21239;SDS011;10778;48.962;9.018;2023-03-12T14:48:52;13.60;;;3.13;;
21239;SDS011;10778;48.962;9.018;2023-03-12T14:51:23;10.40;;;2.90;;
21239;SDS011;10778;48.962;9.018;2023-03-12T14:53:53;12.48;;;3.05;;
21239;SDS011;10778;48.962;9.018;2023-03-12T14:56:27;13.77;;;3.20;;
21239;SDS011;10778;48.962;9.018;2023-03-12T14:58:58;11.57;;;3.08;;
21239;SDS011;10778;48.962;9.018;2023-03-12T15:01:27;11.73;;;3.20;;
21239;SDS011;10778;48.962;9.018;2023-03-12T15:03:57;12.90;;;2.88;;
21239;SDS011;10778;48.962;9.018;2023-03-12T15:06:33;10.52;;;2.42;;
21239;SDS011;10778;48.962;9.018;2023-03-12T15:09:03;11.40;;;2.80;;
21239;SDS011;10778;48.962;9.018;2023-03-12T15:11:33;9.98;;;2.70;;
21239;SDS011;10778;48.962;9.018;2023-03-12T15:14:02;13.40;;;2.60;;
21239;SDS011;10778;48.962;9.018;2023-03-12T15:16:32;13.45;;;2.88;;
21239;SDS011;10778;48.962;9.018;2023-03-12T15:19:00;9.70;;;2.80;;
21239;SDS011;10778;48.962;9.018;2023-03-12T15:21:27;11.02;;;2.42;;
21239;SDS011;10778;48.962;9.018;2023-03-12T15:23:53;11.30;;;2.55;;
21239;SDS011;10778;48.962;9.018;2023-03-12T15:31:21;13.93;;;3.92;;
21239;SDS011;10778;48.962;9.018;2023-03-12T15:34:09;13.68;;;4.80;;
21239;SDS011;10778;48.962;9.018;2023-03-12T15:36:35;12.55;;;3.75;;
21239;SDS011;10778;48.962;9.018;2023-03-12T15:39:14;12.75;;;4.10;;
21239;SDS011;10778;48.962;9.018;2023-03-12T15:41:49;9.60;;;4.13;;
21239;SDS011;10778;48.962;9.018;2023-03-12T15:44:25;9.75;;;3.22;;
21239;SDS011;10778;48.962;9.018;2023-03-12T15:47:08;9.70;;;2.55;;
21239;SDS011;10778;48.962;9.018;2023-03-12T15:49:40;9.93;;;2.70;;
21239;SDS011;10778;48.962;9.018;2023-03-12T15:54:59;11.35;;;2.72;;
21239;SDS011;10778;48.962;9.018;2023-03-12T15:57:27;10.02;;;2.70;;
21239;SDS011;10778;48.962;9.018;2023-03-12T16:05:16;10.18;;;2.25;;
21239;SDS011;10778;48.962;9.018;2023-03-12T16:07:44;8.07;;;2.58;;
21239;SDS011;10778;48.962;9.018;2023-03-12T16:10:11;11.77;;;2.97;;
21239;SDS011;10778;48.962;9.018;2023-03-12T16:12:40;11.93;;;2.65;;
21239;SDS011;10778;48.962;9.018;2023-03-12T16:15:19;10.10;;;2.40;;
21239;SDS011;10778;48.962;9.018;2023-03-12T16:17:50;11.27;;;2.30;;
21239;SDS011;10778;48.962;9.018;2023-03-12T16:20:16;12.00;;;2.67;;
21239;SDS011;10778;48.962;9.018;2023-03-12T16:22:42;12.73;;;2.58;;
21239;SDS011;10778;48.962;9.018;2023-03-12T16:25:09;11.80;;;2.15;;
21239;SDS011;10778;48.962;9.018;2023-03-12T16:27:36;11.27;;;2.47;;
21239;SDS011;10778;48.962;9.018;2023-03-12T16:30:19;8.63;;;2.33;;
21239;SDS011;10778;48.962;9.018;2023-03-12T16:32:50;8.27;;;2.22;;
21239;SDS011;10778;48.962;9.018;2023-03-12T16:35:16;10.20;;;2.40;;
21239;SDS011;10778;48.962;9.018;2023-03-12T16:37:44;9.27;;;2.25;;
21239;SDS011;10778;48.962;9.018;2023-03-12T16:40:11;10.63;;;2.30;;
21239;SDS011;10778;48.962;9.018;2023-03-12T16:42:40;11.15;;;2.47;;
21239;SDS011;10778;48.962;9.018;2023-03-12T16:45:10;9.88;;;2.60;;
21239;SDS011;10778;48.962;9.018;2023-03-12T16:47:39;9.77;;;2.30;;
21239;SDS011;10778;48.962;9.018;2023-03-12T16:52:44;10.43;;;3.40;;
21239;SDS011;10778;48.962;9.018;2023-03-12T16:55:16;9.98;;;2.65;;
21239;SDS011;10778;48.962;9.018;2023-03-12T16:57:44;13.52;;;2.97;;
21239;SDS011;10778;48.962;9.018;2023-03-12T17:00:19;12.68;;;2.90;;
21239;SDS011;10778;48.962;9.018;2023-03-12T17:02:47;13.95;;;3.33;;
21239;SDS011;10778;48.962;9.018;2023-03-12T17:05:14;9.88;;;2.75;;